createdAt,value
2018-12-25T00:01:56.706Z,49.90
2018-12-25T00:04:45.141Z,49.70
2018-12-25T00:07:33.555Z,50.00
2018-12-25T00:10:21.927Z,49.70
2018-12-25T00:16:05.102Z,50.10
2018-12-25T00:18:53.717Z,50.20
2018-12-25T00:21:42.634Z,50.40
2018-12-25T00:24:31.088Z,50.00
2018-12-25T00:27:19.742Z,50.50
2018-12-25T00:30:08.456Z,50.40
2018-12-25T00:32:56.804Z,50.80
2018-12-25T00:35:45.753Z,50.80
2018-12-25T00:41:10.355Z,50.80
2018-12-25T00:43:51.188Z,51.80
2018-12-25T00:46:33.916Z,51.60
2018-12-25T00:49:04.356Z,51.50
2018-12-25T00:51:55.087Z,51.20
2018-12-25T00:54:44.216Z,51.40
2018-12-25T01:00:09.588Z,50.60
2018-12-25T01:02:58.606Z,50.70
2018-12-25T01:05:40.753Z,50.90
2018-12-25T01:08:21.943Z,50.80
2018-12-25T01:11:03.048Z,51.60
2018-12-25T01:16:41.581Z,52.30
2018-12-25T01:19:30.942Z,52.30
2018-12-25T01:22:00.189Z,52.40
2018-12-25T01:24:48.927Z,52.50
2018-12-25T01:27:18.175Z,52.50
2018-12-25T01:30:06.491Z,51.60
2018-12-25T01:32:35.667Z,51.50
2018-12-25T01:35:24.026Z,51.70
2018-12-25T01:37:53.101Z,52.10
2018-12-25T01:40:41.613Z,52.00
2018-12-25T01:43:29.936Z,51.90
2018-12-25T01:46:18.319Z,51.90
2018-12-25T01:49:06.593Z,51.50
2018-12-25T01:51:35.732Z,51.80
2018-12-25T01:56:54.490Z,51.90
2018-12-25T01:59:42.858Z,53.90
2018-12-25T02:02:31.359Z,53.30
2018-12-25T02:05:19.977Z,52.70
2018-12-25T02:08:08.500Z,52.30
2018-12-25T02:10:56.942Z,52.60
2018-12-25T02:13:26.151Z,52.50
2018-12-25T02:16:14.592Z,52.00
2018-12-25T02:19:03.360Z,52.60
2018-12-25T02:21:51.836Z,51.80
2018-12-25T02:24:41.906Z,52.30
2018-12-25T02:33:20.231Z,51.60
2018-12-25T02:36:01.326Z,51.80
2018-12-25T02:38:42.721Z,52.20
2018-12-25T02:41:24.099Z,52.40
2018-12-25T02:44:05.757Z,52.00
2018-12-25T02:46:47.113Z,51.70
2018-12-25T02:49:28.202Z,51.70
2018-12-25T02:52:09.022Z,52.00
2018-12-25T02:57:21.147Z,52.70
2018-12-25T03:00:09.805Z,52.60
2018-12-25T03:02:58.285Z,51.60
2018-12-25T03:05:46.663Z,50.80
2018-12-25T03:08:16.140Z,50.50
2018-12-25T03:10:45.394Z,50.80
2018-12-25T03:13:14.567Z,50.90
2018-12-25T03:16:03.213Z,50.40
2018-12-25T03:18:51.519Z,50.80
2018-12-25T03:21:20.785Z,50.20
2018-12-25T03:24:28.351Z,50.70
2018-12-25T03:27:09.335Z,50.60
2018-12-25T03:29:50.657Z,50.30
2018-12-25T03:32:20.189Z,51.00
2018-12-25T03:35:08.647Z,50.90
2018-12-25T03:37:56.975Z,50.30
2018-12-25T03:40:26.102Z,51.20
2018-12-25T03:43:14.654Z,50.80
2018-12-25T03:46:02.981Z,50.70
2018-12-25T03:48:51.463Z,50.90
2018-12-25T03:51:40.262Z,50.60
2018-12-25T03:54:28.542Z,49.30
2018-12-25T03:57:16.990Z,48.90
2018-12-25T03:59:46.108Z,48.70
2018-12-25T04:02:15.216Z,48.10
2018-12-25T04:05:03.656Z,48.20
2018-12-25T04:10:40.070Z,46.90
2018-12-25T04:13:28.387Z,47.40
2018-12-25T04:16:16.869Z,47.30
2018-12-25T04:18:46.147Z,48.20
2018-12-25T04:21:34.508Z,48.90
2018-12-25T04:24:42.483Z,48.70
2018-12-25T04:27:23.872Z,47.00
2018-12-25T04:30:05.602Z,46.80
2018-12-25T04:32:47.160Z,46.50
2018-12-25T04:35:28.053Z,46.60
2018-12-25T04:37:57.281Z,46.90
2018-12-25T04:40:45.747Z,47.10
2018-12-25T04:43:34.089Z,47.50
2018-12-25T04:46:22.327Z,48.50
2018-12-25T04:49:10.742Z,47.60
2018-12-25T04:51:40.048Z,46.70
2018-12-25T04:54:47.622Z,46.70
2018-12-25T04:57:35.965Z,46.80
2018-12-25T05:00:24.537Z,47.80
2018-12-25T05:03:13.181Z,47.90
2018-12-25T05:06:01.462Z,46.80
2018-12-25T05:08:49.841Z,46.50
2018-12-25T05:11:38.168Z,46.70
2018-12-25T05:14:45.740Z,46.70
2018-12-25T05:17:14.877Z,46.50
2018-12-25T05:19:44.018Z,47.10
2018-12-25T05:22:32.629Z,47.00
2018-12-25T05:25:21.172Z,47.30
2018-12-25T05:27:50.424Z,47.10
2018-12-25T05:30:38.786Z,46.80
2018-12-25T05:36:21.752Z,47.70
2018-12-25T05:39:10.225Z,47.30
2018-12-25T05:41:58.595Z,47.80
2018-12-25T05:44:47.238Z,48.10
2018-12-25T05:47:35.508Z,48.70
2018-12-25T05:50:23.854Z,49.30
2018-12-25T05:53:12.168Z,49.60
2018-12-25T05:55:53.169Z,50.40
2018-12-25T05:58:34.402Z,50.30
2018-12-25T06:01:15.726Z,50.00
2018-12-25T06:03:57.203Z,50.40
2018-12-25T06:06:45.676Z,50.20
2018-12-25T06:09:34.018Z,49.50
2018-12-25T06:12:22.285Z,49.80
2018-12-25T06:15:10.725Z,49.90
2018-12-25T06:17:59.047Z,49.30
2018-12-25T06:20:54.935Z,49.30
2018-12-25T06:23:37.912Z,49.70
2018-12-25T06:26:07.282Z,49.60
2018-12-25T06:28:36.355Z,48.60
2018-12-25T06:31:24.659Z,48.00
2018-12-25T06:34:13.016Z,47.80
2018-12-25T06:37:03.092Z,47.40
2018-12-25T06:39:51.385Z,47.00
2018-12-25T06:42:39.838Z,46.40
2018-12-25T06:45:28.177Z,46.50
2018-12-25T06:47:57.244Z,46.20
2018-12-25T06:50:45.541Z,46.50
2018-12-25T06:53:33.853Z,46.70
2018-12-25T06:56:15.329Z,47.60
2018-12-25T06:58:56.653Z,46.90
2018-12-25T07:01:37.850Z,45.80
2018-12-25T07:04:22.359Z,45.50
2018-12-25T07:15:47.706Z,45.90
2018-12-25T07:18:28.921Z,46.50
2018-12-25T07:21:28.922Z,46.60
2018-12-25T07:24:10.286Z,47.30
2018-12-25T07:26:40.096Z,47.40
2018-12-25T07:32:25.202Z,48.20
2018-12-25T07:35:14.494Z,48.20
2018-12-25T07:38:03.132Z,48.30
2018-12-25T07:40:32.274Z,48.70
2018-12-25T07:43:20.821Z,49.00
2018-12-25T07:46:10.062Z,49.40
2018-12-25T07:48:58.712Z,49.20
2018-12-25T07:51:47.705Z,49.60
2018-12-25T07:54:36.055Z,49.50
2018-12-25T07:57:25.125Z,49.70
2018-12-25T08:00:13.649Z,49.30
2018-12-25T08:03:02.014Z,49.40
2018-12-25T08:05:53.578Z,49.30
2018-12-25T08:08:36.180Z,49.80
2018-12-25T08:11:06.443Z,49.80
2018-12-25T08:13:55.449Z,49.70
2018-12-25T08:16:25.174Z,49.50
2018-12-25T08:18:55.236Z,49.20
2018-12-25T08:21:43.688Z,49.00
2018-12-25T08:24:33.082Z,49.20
2018-12-25T08:27:21.460Z,48.90
2018-12-25T08:33:05.426Z,47.80
2018-12-25T08:35:34.717Z,48.30
2018-12-25T08:38:23.465Z,47.70
2018-12-25T08:41:12.084Z,47.90
2018-12-25T08:44:00.620Z,47.20
2018-12-25T08:46:49.052Z,46.80
2018-12-25T08:49:18.323Z,46.30
2018-12-25T08:52:06.868Z,47.10
2018-12-25T08:54:55.589Z,46.30
2018-12-25T08:57:25.054Z,46.00
2018-12-25T09:00:13.876Z,45.60
2018-12-25T09:06:11.174Z,45.80
2018-12-25T09:08:52.465Z,45.60
2018-12-25T09:11:33.981Z,45.20
2018-12-25T09:14:14.746Z,44.50
2018-12-25T09:16:56.443Z,44.00
2018-12-25T09:19:38.073Z,44.00
2018-12-25T09:22:19.757Z,44.00
2018-12-25T09:25:00.791Z,44.00
2018-12-25T09:27:29.937Z,43.90
2018-12-25T09:29:59.988Z,44.00
2018-12-25T09:32:29.420Z,43.40
2018-12-25T09:35:17.841Z,43.40
2018-12-25T09:38:06.434Z,43.40
2018-12-25T09:40:35.778Z,43.20
2018-12-25T09:43:26.373Z,43.50
2018-12-25T09:46:14.992Z,43.40
2018-12-25T09:49:06.008Z,43.80
2018-12-25T09:51:54.850Z,43.20
2018-12-25T09:54:43.525Z,43.40
2018-12-25T09:57:32.241Z,42.70
2018-12-25T10:00:20.687Z,43.30
2018-12-25T10:02:50.702Z,43.70
2018-12-25T10:05:39.135Z,44.30
2018-12-25T10:08:20.561Z,44.50
2018-12-25T10:11:02.388Z,44.10
2018-12-25T10:13:43.951Z,43.30
2018-12-25T10:16:24.993Z,42.80
2018-12-25T10:18:54.183Z,42.20
2018-12-25T10:21:42.552Z,42.70
2018-12-25T10:24:51.320Z,42.10
2018-12-25T10:27:39.938Z,42.50
2018-12-25T10:30:28.423Z,42.70
2018-12-25T10:33:16.854Z,42.30
2018-12-25T10:36:05.535Z,43.50
2018-12-25T10:41:42.137Z,45.40
2018-12-25T10:44:30.864Z,44.40
2018-12-25T10:47:12.807Z,43.90
2018-12-25T10:52:25.976Z,43.70
2018-12-25T10:55:14.581Z,43.00
2018-12-25T11:00:55.461Z,42.90
2018-12-25T11:03:44.724Z,43.00
2018-12-25T11:06:33.619Z,43.30
2018-12-25T11:11:58.417Z,44.50
2018-12-25T11:14:27.900Z,43.50
2018-12-25T11:17:30.679Z,43.20
2018-12-25T11:20:11.443Z,43.30
2018-12-25T11:22:38.392Z,43.20
2018-12-25T11:25:27.033Z,43.50
2018-12-25T11:28:15.892Z,43.50
2018-12-25T11:31:04.280Z,43.90
2018-12-25T11:33:53.041Z,43.40
2018-12-25T11:36:41.636Z,43.00
2018-12-25T11:39:30.322Z,43.40
2018-12-25T11:42:19.144Z,43.50
2018-12-25T11:45:05.905Z,43.40
2018-12-25T11:47:50.074Z,43.30
2018-12-25T11:50:31.723Z,42.40
2018-12-25T11:53:01.832Z,42.50
2018-12-25T11:55:51.634Z,43.30
2018-12-25T11:58:48.839Z,42.20
2018-12-25T12:01:37.517Z,41.90
2018-12-25T12:04:25.978Z,42.20
2018-12-25T12:07:14.338Z,42.70
2018-12-25T12:10:03.302Z,43.30
2018-12-25T12:12:51.853Z,43.30
2018-12-25T12:15:40.348Z,43.50
2018-12-25T12:21:18.638Z,42.50
2018-12-25T12:23:47.645Z,42.30
2018-12-25T12:26:36.478Z,42.40
2018-12-25T12:29:05.660Z,41.30
2018-12-25T12:31:54.184Z,40.80
2018-12-25T12:34:23.321Z,41.50
2018-12-25T12:37:11.844Z,41.50
2018-12-25T12:42:41.887Z,40.60
2018-12-25T12:45:11.191Z,40.70
2018-12-25T12:47:59.683Z,40.50
2018-12-25T12:50:48.021Z,40.70
2018-12-25T12:53:36.388Z,40.70
2018-12-25T12:56:25.272Z,40.00
2018-12-25T12:59:13.795Z,39.80
2018-12-25T13:02:02.969Z,38.90
2018-12-25T13:04:51.386Z,39.00
2018-12-25T13:07:39.850Z,39.90
2018-12-25T13:10:28.412Z,40.20
2018-12-25T13:12:57.504Z,40.00
2018-12-25T13:15:45.853Z,39.70
2018-12-25T13:18:34.332Z,40.70
2018-12-25T13:21:22.787Z,41.00
2018-12-25T13:24:11.665Z,41.20
2018-12-25T13:27:00.094Z,42.00
2018-12-25T13:32:50.777Z,42.10
2018-12-25T13:35:39.719Z,42.10
2018-12-25T13:38:28.044Z,42.70
2018-12-25T13:41:28.890Z,43.30
2018-12-25T13:44:06.549Z,43.40
2018-12-25T13:46:54.993Z,43.30
2018-12-25T13:49:43.361Z,44.70
2018-12-25T13:52:12.833Z,44.00
2018-12-25T13:55:01.288Z,43.80
2018-12-25T13:57:49.989Z,43.30
2018-12-25T14:00:19.342Z,43.20
2018-12-25T14:02:49.194Z,43.80
2018-12-25T14:05:37.783Z,44.00
2018-12-25T14:08:26.393Z,43.80
2018-12-25T14:10:57.512Z,43.30
2018-12-25T14:13:52.993Z,43.50
2018-12-25T14:16:43.815Z,44.20
2018-12-25T14:19:33.184Z,44.60
2018-12-25T14:22:21.678Z,44.20
2018-12-25T14:24:51.226Z,43.90
2018-12-25T14:27:39.718Z,43.20
2018-12-25T14:30:28.871Z,43.30
2018-12-25T14:33:17.404Z,43.40
2018-12-25T14:35:46.967Z,42.90
2018-12-25T14:41:00.321Z,42.50
2018-12-25T14:43:49.133Z,42.10
2018-12-25T14:46:37.546Z,41.40
2018-12-25T14:49:21.059Z,43.00
2018-12-25T14:51:56.918Z,42.60
2018-12-25T14:54:45.380Z,42.70
2018-12-25T14:57:52.906Z,43.50
2018-12-25T15:06:17.322Z,43.00
2018-12-25T15:09:06.437Z,43.00
2018-12-25T15:11:55.107Z,43.20
2018-12-25T15:14:43.767Z,43.40
2018-12-25T15:17:51.277Z,44.10
2018-12-25T15:20:23.099Z,44.50
2018-12-25T15:23:11.711Z,44.70
2018-12-25T15:26:00.175Z,44.80
2018-12-25T15:28:49.278Z,45.60
2018-12-25T15:31:18.607Z,45.60
2018-12-25T15:34:07.248Z,45.70
2018-12-25T15:36:36.806Z,45.60
2018-12-25T15:39:25.318Z,46.00
2018-12-25T15:41:54.967Z,46.00
2018-12-25T15:44:24.413Z,46.10
2018-12-25T15:47:13.005Z,45.90
2018-12-25T15:50:01.589Z,45.10
2018-12-25T15:52:31.255Z,45.30
2018-12-25T15:55:19.853Z,46.10
2018-12-25T15:58:10.635Z,46.00
2018-12-25T16:00:58.947Z,45.50
2018-12-25T16:03:49.065Z,45.90
2018-12-25T16:06:37.701Z,46.30
2018-12-25T16:09:26.205Z,46.70
2018-12-25T16:12:14.650Z,46.40
2018-12-25T16:18:26.742Z,46.70
2018-12-25T16:21:07.667Z,46.60
2018-12-25T16:23:50.228Z,46.90
2018-12-25T16:26:54.663Z,47.00
2018-12-25T16:29:36.250Z,46.90
2018-12-25T16:32:18.256Z,47.70
2018-12-25T16:34:48.507Z,47.80
2018-12-25T16:37:37.357Z,48.00
2018-12-25T16:40:29.232Z,47.90
2018-12-25T16:43:17.728Z,48.20
2018-12-25T16:46:06.222Z,48.10
2018-12-25T16:51:48.668Z,48.20
2018-12-25T16:54:18.317Z,47.40
2018-12-25T16:57:07.073Z,47.30
2018-12-25T16:59:57.615Z,48.10
2018-12-25T17:02:46.496Z,47.80
2018-12-25T17:05:34.990Z,48.30
2018-12-25T17:08:24.424Z,48.10
2018-12-25T17:11:13.385Z,48.50
2018-12-25T17:14:02.431Z,48.40
2018-12-25T17:16:51.206Z,48.20
2018-12-25T17:22:28.230Z,47.30
2018-12-25T17:25:17.625Z,47.20
2018-12-25T17:27:50.843Z,47.50
2018-12-25T17:30:39.498Z,47.60
2018-12-25T17:33:27.880Z,47.30
2018-12-25T17:36:09.144Z,46.60
2018-12-25T17:38:50.223Z,46.60
2018-12-25T17:41:31.681Z,47.00
2018-12-25T17:44:01.633Z,46.80
2018-12-25T17:46:32.038Z,46.80
2018-12-25T17:49:02.437Z,46.80
2018-12-25T17:51:51.319Z,46.80
2018-12-25T17:54:21.254Z,46.50
2018-12-25T17:57:10.203Z,46.60
2018-12-25T17:59:58.980Z,47.10
2018-12-25T18:02:48.284Z,46.60
2018-12-25T18:05:37.042Z,46.70
2018-12-25T18:08:26.100Z,45.90
2018-12-25T18:11:14.778Z,45.90
2018-12-25T18:14:03.802Z,45.40
2018-12-25T18:16:33.944Z,45.50
2018-12-25T18:19:04.003Z,45.50
2018-12-25T18:21:52.666Z,45.90
2018-12-25T18:24:41.126Z,46.00
2018-12-25T18:27:11.263Z,46.00
2018-12-25T18:29:59.717Z,46.30
2018-12-25T18:32:48.243Z,46.40
2018-12-25T18:35:36.757Z,46.40
2018-12-25T18:38:25.095Z,46.50
2018-12-25T18:41:13.530Z,46.80
2018-12-25T18:43:43.071Z,46.40
2018-12-25T18:46:12.578Z,46.40
2018-12-25T18:49:01.079Z,46.80
2018-12-25T18:51:49.591Z,47.10
2018-12-25T18:57:26.314Z,47.50
2018-12-25T19:00:14.623Z,47.40
2018-12-25T19:03:03.262Z,47.10
2018-12-25T19:08:26.629Z,47.70
2018-12-25T19:11:07.620Z,47.40
2018-12-25T19:13:48.430Z,47.20
2018-12-25T19:16:31.990Z,47.60
2018-12-25T19:19:01.082Z,47.70
2018-12-25T19:21:49.468Z,48.30
2018-12-25T19:24:38.217Z,48.10
2018-12-25T19:27:29.379Z,48.00
2018-12-25T19:30:20.672Z,48.40
2018-12-25T19:33:09.376Z,49.30
2018-12-25T19:36:08.522Z,49.70
2018-12-25T19:42:23.028Z,49.30
2018-12-25T19:45:11.587Z,48.80
2018-12-25T19:48:00.287Z,48.10
2018-12-25T19:50:49.086Z,48.00
2018-12-25T19:53:38.254Z,48.00
2018-12-25T19:56:08.288Z,47.70
2018-12-25T19:58:56.686Z,47.80
2018-12-25T20:01:45.076Z,48.40
2018-12-25T20:04:52.622Z,48.40
2018-12-25T20:10:57.149Z,48.60
2018-12-25T20:13:38.313Z,49.00
2018-12-25T20:16:45.905Z,48.90
2018-12-25T20:19:54.004Z,48.60
2018-12-25T20:22:57.048Z,48.90
2018-12-25T20:26:04.785Z,49.20
2018-12-25T20:29:12.360Z,49.30
2018-12-25T20:32:42.720Z,49.60
2018-12-25T20:35:50.852Z,49.40
2018-12-25T20:38:58.507Z,49.90
2018-12-25T20:42:06.091Z,49.50
2018-12-25T20:48:26.067Z,49.40
2018-12-25T20:51:33.837Z,49.30
2018-12-25T20:54:15.206Z,49.60
2018-12-25T20:56:56.836Z,49.20
2018-12-25T20:59:38.557Z,49.00
2018-12-25T21:02:38.295Z,49.20
2018-12-25T21:05:19.585Z,48.90
2018-12-25T21:08:01.069Z,48.70
2018-12-25T21:10:42.444Z,48.70
2018-12-25T21:13:23.609Z,48.70
2018-12-25T21:16:31.275Z,48.90
2018-12-25T21:19:39.136Z,49.40
2018-12-25T21:22:46.777Z,48.50
2018-12-25T21:25:54.310Z,48.60
2018-12-25T21:28:42.780Z,48.60
2018-12-25T21:31:31.128Z,48.50
2018-12-25T21:34:19.893Z,48.80
2018-12-25T21:37:11.924Z,49.10
2018-12-25T21:40:00.317Z,49.60
2018-12-25T21:42:49.353Z,49.80
2018-12-25T21:45:30.845Z,49.80
2018-12-25T21:48:16.121Z,49.40
2018-12-25T21:51:04.750Z,49.50
2018-12-25T21:53:53.225Z,50.00
2018-12-25T21:56:42.733Z,50.00
2018-12-25T21:59:31.054Z,49.80
2018-12-25T22:02:19.770Z,49.70
2018-12-25T22:05:08.419Z,49.10
2018-12-25T22:08:02.475Z,49.40
2018-12-25T22:10:50.885Z,49.00
2018-12-25T22:13:39.242Z,48.90
2018-12-25T22:16:27.986Z,48.40
2018-12-25T22:19:16.498Z,48.50
2018-12-25T22:22:04.970Z,48.40
2018-12-25T22:24:53.946Z,47.80
2018-12-25T22:27:23.239Z,48.00
2018-12-25T22:29:52.729Z,48.70
2018-12-25T22:32:21.850Z,48.70
2018-12-25T22:35:10.211Z,48.30
2018-12-25T22:38:01.861Z,47.90
2018-12-25T22:40:50.244Z,47.90
2018-12-25T22:43:38.865Z,47.90
2018-12-25T22:46:28.314Z,47.80
2018-12-25T22:49:35.423Z,47.90
2018-12-25T22:54:55.186Z,47.30
2018-12-25T22:57:43.558Z,47.80
2018-12-25T23:00:34.382Z,47.60
2018-12-25T23:03:22.798Z,48.30
2018-12-25T23:06:11.418Z,47.90
2018-12-25T23:09:00.145Z,47.80
2018-12-25T23:11:48.610Z,47.70
2018-12-25T23:14:36.988Z,48.20
2018-12-25T23:17:25.345Z,48.20
2018-12-25T23:20:13.747Z,48.00
2018-12-25T23:23:03.784Z,48.10
2018-12-25T23:25:52.965Z,47.60
2018-12-25T23:28:41.523Z,47.40
2018-12-25T23:31:29.854Z,47.20
2018-12-25T23:34:11.505Z,47.20
2018-12-25T23:36:52.144Z,48.00
2018-12-25T23:39:35.931Z,47.50
2018-12-25T23:42:16.999Z,47.70
2018-12-25T23:44:58.415Z,46.70
2018-12-25T23:47:39.511Z,46.20
2018-12-25T23:50:20.416Z,46.20
2018-12-25T23:52:50.046Z,46.30
2018-12-25T23:55:38.443Z,45.90
2018-12-25T23:58:28.840Z,45.50
